Time;durP1;ratioP1;P1;durP2;ratioP2;P2;SDS_P1;SDS_P2;PMS_P1;PMS_P2;Temp;Humidity;BMP_temperature;BMP_pressure;BME280_temperature;BME280_humidity;BME280_pressure;Samples;Min_cycle;Max_cycle;Signal;HPM_P1;HPM_P2
2021/12/09 00:00:22;;;;;;;;;;;1.20;82.20;;;;;;5020714;28;86448;-61
2021/12/09 00:02:48;;;;;;;;;;;1.20;82.30;;;;;;5023067;28;87867;-61
2021/12/09 00:05:15;;;;;;;;;;;1.20;82.20;;;;;;5020909;28;88296;-61
2021/12/09 00:07:42;;;;;;;;;;;1.20;82.10;;;;;;5020981;28;88093;-61
2021/12/09 00:10:09;;;;;;;;;;;1.20;82.20;;;;;;5018405;28;89900;-61
2021/12/09 00:12:35;;;;;;;;;;;1.20;82.20;;;;;;5022161;28;89230;-60
2021/12/09 00:15:01;;;;;;;;;;;1.20;82.10;;;;;;5024630;28;87214;-61
2021/12/09 00:17:26;;;;;;;;;;;1.20;82.20;;;;;;5020665;28;89037;-61
2021/12/09 00:19:52;;;;;;;;;;;1.20;82.30;;;;;;5021244;28;87173;-61
2021/12/09 00:22:17;;;;;;;;;;;1.20;82.20;;;;;;5020940;28;87149;-61
2021/12/09 00:24:43;;;;;;;;;;;1.20;82.30;;;;;;5022168;28;86977;-61
2021/12/09 00:27:08;;;;;;;;;;;1.10;82.30;;;;;;5021744;28;88705;-61
2021/12/09 00:29:34;;;;;;;;;;;1.20;82.30;;;;;;5018935;28;88068;-61
2021/12/09 00:31:59;;;;;;;;;;;1.20;82.40;;;;;;5017585;28;89023;-61
2021/12/09 00:34:29;;;;;;;;;;;1.10;82.30;;;;;;5019680;28;87185;-61
2021/12/09 00:36:59;;;;;;;;;;;1.10;82.40;;;;;;5024422;28;89034;-61
2021/12/09 00:39:24;;;;;;;;;;;1.10;82.30;;;;;;5020790;28;87786;-61
2021/12/09 00:41:50;;;;;;;;;;;1.10;82.40;;;;;;5017697;28;89389;-61
2021/12/09 00:44:16;;;;;;;;;;;1.10;82.40;;;;;;5018354;28;87599;-61
2021/12/09 00:46:41;;;;;;;;;;;1.10;82.40;;;;;;5019559;28;87161;-60
2021/12/09 00:49:07;;;;;;;;;;;1.10;82.50;;;;;;5021314;28;86985;-61
2021/12/09 00:51:33;;;;;;;;;;;1.10;82.50;;;;;;5021333;28;89443;-61
2021/12/09 00:53:58;;;;;;;;;;;1.10;82.50;;;;;;5021287;28;88452;-61
2021/12/09 00:56:24;;;;;;;;;;;1.00;82.50;;;;;;5019062;28;89914;-61
2021/12/09 00:58:50;;;;;;;;;;;1.10;82.40;;;;;;5024644;28;90018;-61
2021/12/09 01:01:16;;;;;;;;;;;1.10;82.50;;;;;;5021171;28;87655;-61
2021/12/09 01:03:42;;;;;;;;;;;1.00;82.50;;;;;;5019154;28;87499;-61
2021/12/09 01:06:08;;;;;;;;;;;1.00;82.50;;;;;;5017669;28;87212;-61
2021/12/09 01:08:34;;;;;;;;;;;1.00;82.40;;;;;;5018881;28;87215;-61
2021/12/09 01:11:01;;;;;;;;;;;1.00;82.50;;;;;;5018277;28;91616;-61
2021/12/09 01:13:27;;;;;;;;;;;1.00;82.40;;;;;;5019643;28;86487;-61
2021/12/09 01:15:52;;;;;;;;;;;1.00;82.40;;;;;;5020019;28;87266;-61
2021/12/09 01:18:18;;;;;;;;;;;1.00;82.50;;;;;;5020691;28;88011;-61
2021/12/09 01:20:43;;;;;;;;;;;1.00;82.60;;;;;;5023857;28;89487;-61
2021/12/09 01:23:09;;;;;;;;;;;1.00;82.50;;;;;;5018287;28;88706;-61
2021/12/09 01:25:38;;;;;;;;;;;1.00;82.70;;;;;;5017248;28;87962;-61
2021/12/09 01:28:11;;;;;;;;;;;0.90;82.50;;;;;;5019263;28;88045;-61
2021/12/09 01:30:37;;;;;;;;;;;0.90;82.50;;;;;;5016559;28;89572;-61
2021/12/09 01:33:03;;;;;;;;;;;0.90;82.70;;;;;;5017987;28;87197;-61
2021/12/09 01:35:31;;;;;;;;;;;0.90;82.50;;;;;;5018327;28;88106;-61
2021/12/09 01:37:57;;;;;;;;;;;0.90;82.50;;;;;;5017014;28;88757;-60
2021/12/09 01:40:24;;;;;;;;;;;0.90;82.50;;;;;;5019942;28;88565;-61
2021/12/09 01:42:50;;;;;;;;;;;0.90;82.50;;;;;;5017247;28;87908;-61
2021/12/09 01:45:15;;;;;;;;;;;0.90;82.50;;;;;;5015801;28;88180;-61
2021/12/09 01:47:41;;;;;;;;;;;1.00;82.50;;;;;;5016917;28;88980;-61
2021/12/09 01:50:07;;;;;;;;;;;0.90;82.50;;;;;;5017236;28;87444;-61
2021/12/09 01:52:33;;;;;;;;;;;0.90;82.60;;;;;;5018133;28;87275;-61
2021/12/09 01:54:58;;;;;;;;;;;0.90;82.60;;;;;;5019215;28;89323;-61
2021/12/09 01:57:24;;;;;;;;;;;0.90;82.70;;;;;;5020339;28;88935;-61
2021/12/09 01:59:49;;;;;;;;;;;0.90;82.70;;;;;;5019989;28;87962;-61
2021/12/09 02:02:15;;;;;;;;;;;0.90;82.70;;;;;;5019891;28;87994;-61
2021/12/09 02:04:40;;;;;;;;;;;0.90;82.70;;;;;;5017145;28;87120;-61
2021/12/09 02:07:06;;;;;;;;;;;0.80;82.60;;;;;;5016659;28;87132;-61
2021/12/09 02:09:32;;;;;;;;;;;0.80;82.60;;;;;;5015336;28;88359;-61
2021/12/09 02:11:57;;;;;;;;;;;0.90;82.70;;;;;;5016688;28;87216;-61
2021/12/09 02:14:23;;;;;;;;;;;0.80;82.50;;;;;;5017030;28;87119;-61
2021/12/09 02:16:48;;;;;;;;;;;0.80;82.50;;;;;;5017376;28;88551;-61
2021/12/09 02:19:14;;;;;;;;;;;0.80;82.50;;;;;;5019161;28;87120;-61
2021/12/09 02:21:42;;;;;;;;;;;0.80;82.40;;;;;;5019165;28;89278;-61
2021/12/09 02:24:09;;;;;;;;;;;0.80;82.50;;;;;;5020063;28;88320;-61
2021/12/09 02:26:36;;;;;;;;;;;0.80;82.70;;;;;;5017115;28;88146;-61
2021/12/09 02:29:03;;;;;;;;;;;0.80;82.60;;;;;;5018281;28;88795;-61
2021/12/09 02:31:29;;;;;;;;;;;0.80;82.60;;;;;;5020054;28;87936;-61
2021/12/09 02:33:55;;;;;;;;;;;0.80;82.40;;;;;;5017449;28;88528;-61
2021/12/09 02:36:20;;;;;;;;;;;0.80;82.50;;;;;;5016375;28;89412;-61
2021/12/09 02:38:47;;;;;;;;;;;0.80;82.50;;;;;;5016630;28;87287;-61
2021/12/09 02:41:16;;;;;;;;;;;0.70;82.50;;;;;;5015839;28;88841;-61
2021/12/09 02:43:43;;;;;;;;;;;0.70;82.50;;;;;;5015964;28;88553;-61
2021/12/09 02:46:08;;;;;;;;;;;0.70;82.60;;;;;;5023318;28;88246;-61
2021/12/09 02:48:34;;;;;;;;;;;0.70;82.40;;;;;;5019668;28;88150;-61
2021/12/09 02:51:00;;;;;;;;;;;0.70;82.60;;;;;;5020438;28;86453;-61
2021/12/09 02:53:26;;;;;;;;;;;0.70;82.60;;;;;;5020388;28;88162;-61
2021/12/09 02:55:51;;;;;;;;;;;0.70;83.10;;;;;;5016660;28;87820;-61
2021/12/09 02:58:17;;;;;;;;;;;0.70;82.60;;;;;;5015329;28;88121;-61
2021/12/09 03:01:13;;;;;;;;;;;0.70;82.60;;;;;;5017033;28;89922;-61
2021/12/09 03:03:49;;;;;;;;;;;0.70;82.50;;;;;;5014446;28;90256;-61
2021/12/09 03:06:16;;;;;;;;;;;0.70;82.60;;;;;;5015662;28;87129;-61
2021/12/09 03:08:42;;;;;;;;;;;0.70;82.50;;;;;;5018456;28;87241;-61
2021/12/09 03:11:10;;;;;;;;;;;0.70;82.70;;;;;;5016152;28;88080;-61
2021/12/09 03:13:36;;;;;;;;;;;0.70;82.50;;;;;;5018256;28;88260;-61
2021/12/09 03:16:03;;;;;;;;;;;0.60;82.50;;;;;;5016970;28;87079;-62
2021/12/09 03:18:28;;;;;;;;;;;0.60;82.50;;;;;;5019338;28;87217;-61
2021/12/09 03:20:54;;;;;;;;;;;0.60;82.50;;;;;;5020052;28;87872;-62
2021/12/09 03:23:19;;;;;;;;;;;0.60;82.60;;;;;;5015749;28;90582;-61
2021/12/09 03:25:45;;;;;;;;;;;0.60;82.60;;;;;;5017394;28;88768;-61
2021/12/09 03:28:10;;;;;;;;;;;0.60;82.70;;;;;;5023802;28;88645;-61
2021/12/09 03:30:36;;;;;;;;;;;0.60;82.60;;;;;;5021290;28;87929;-61
2021/12/09 03:33:02;;;;;;;;;;;0.60;82.70;;;;;;5023687;28;87222;-61
2021/12/09 03:35:28;;;;;;;;;;;0.60;82.70;;;;;;5022297;28;90036;-61
2021/12/09 03:37:53;;;;;;;;;;;0.60;82.80;;;;;;5022303;28;87168;-61
2021/12/09 03:40:19;;;;;;;;;;;0.50;82.70;;;;;;5022205;28;87440;-61
2021/12/09 03:42:45;;;;;;;;;;;0.60;82.70;;;;;;5021808;28;89964;-61
2021/12/09 03:45:11;;;;;;;;;;;0.60;82.70;;;;;;5021515;28;87150;-61
2021/12/09 03:47:38;;;;;;;;;;;0.60;82.70;;;;;;5020226;28;89027;-61
2021/12/09 03:50:05;;;;;;;;;;;0.50;82.70;;;;;;5023535;28;88227;-61
2021/12/09 03:52:31;;;;;;;;;;;0.60;82.70;;;;;;5018492;28;88893;-61
2021/12/09 03:54:57;;;;;;;;;;;0.60;83.30;;;;;;5018183;28;89376;-61
2021/12/09 03:57:23;;;;;;;;;;;0.50;82.70;;;;;;5018471;28;87236;-62
2021/12/09 03:59:48;;;;;;;;;;;0.50;82.80;;;;;;5018315;28;87578;-61
2021/12/09 04:02:14;;;;;;;;;;;0.50;82.80;;;;;;5019668;28;89500;-61
2021/12/09 04:04:40;;;;;;;;;;;0.50;82.70;;;;;;5023325;28;86537;-61
2021/12/09 04:07:06;;;;;;;;;;;0.50;82.70;;;;;;5023094;28;87174;-60
2021/12/09 04:09:31;;;;;;;;;;;0.50;82.70;;;;;;5021889;28;87610;-61
2021/12/09 04:11:57;;;;;;;;;;;0.50;82.70;;;;;;5023750;28;88149;-61
2021/12/09 04:14:23;;;;;;;;;;;0.50;82.70;;;;;;5021286;28;87506;-61
2021/12/09 04:16:49;;;;;;;;;;;0.50;82.80;;;;;;5021544;28;87194;-61
2021/12/09 04:19:15;;;;;;;;;;;0.50;82.70;;;;;;5020235;28;87766;-61
2021/12/09 04:21:41;;;;;;;;;;;0.40;82.70;;;;;;5018292;28;90367;-61
2021/12/09 04:24:08;;;;;;;;;;;0.50;82.70;;;;;;5018761;28;87923;-61
2021/12/09 04:26:34;;;;;;;;;;;0.50;82.80;;;;;;5021301;28;88946;-62
2021/12/09 04:29:00;;;;;;;;;;;0.40;82.70;;;;;;5019854;28;87546;-61
2021/12/09 04:31:27;;;;;;;;;;;0.40;82.60;;;;;;5018956;28;87165;-61
2021/12/09 04:33:52;;;;;;;;;;;0.40;82.70;;;;;;5020454;28;87191;-61
2021/12/09 04:36:19;;;;;;;;;;;0.40;82.70;;;;;;5018077;28;88218;-61
2021/12/09 04:38:47;;;;;;;;;;;0.40;82.60;;;;;;5022233;28;89908;-61
2021/12/09 04:41:14;;;;;;;;;;;0.40;82.60;;;;;;5017591;28;89993;-61
2021/12/09 04:43:40;;;;;;;;;;;0.40;82.70;;;;;;5020252;28;88310;-61
2021/12/09 04:46:06;;;;;;;;;;;0.40;82.70;;;;;;5022712;28;87514;-61
2021/12/09 04:48:31;;;;;;;;;;;0.40;82.70;;;;;;5019165;28;88240;-61
2021/12/09 04:50:57;;;;;;;;;;;0.40;82.70;;;;;;5019954;28;88765;-61
2021/12/09 04:53:22;;;;;;;;;;;0.30;82.70;;;;;;5022977;28;87052;-61
2021/12/09 04:55:48;;;;;;;;;;;0.30;82.70;;;;;;5022927;28;88612;-61
2021/12/09 04:58:13;;;;;;;;;;;0.30;82.70;;;;;;5022443;28;87180;-62
2021/12/09 05:00:39;;;;;;;;;;;0.30;82.70;;;;;;5020646;28;89389;-61
2021/12/09 05:03:12;;;;;;;;;;;0.40;82.70;;;;;;5020563;28;87177;-61
2021/12/09 05:05:39;;;;;;;;;;;0.40;82.80;;;;;;5018166;28;88839;-61
2021/12/09 05:08:07;;;;;;;;;;;0.30;82.80;;;;;;5020845;28;88635;-61
2021/12/09 05:10:49;;;;;;;;;;;0.30;82.70;;;;;;5017969;28;87208;-61
2021/12/09 05:13:14;;;;;;;;;;;0.30;82.80;;;;;;5019513;28;88585;-61
2021/12/09 05:15:40;;;;;;;;;;;0.30;82.70;;;;;;5019590;28;89510;-61
2021/12/09 05:18:05;;;;;;;;;;;0.30;82.80;;;;;;5025432;28;86423;-61
2021/12/09 05:20:31;;;;;;;;;;;0.30;82.80;;;;;;5021138;28;87855;-61
2021/12/09 05:22:56;;;;;;;;;;;0.30;82.90;;;;;;5021934;28;87630;-61
2021/12/09 05:25:22;;;;;;;;;;;0.30;82.90;;;;;;5020811;28;88515;-61
2021/12/09 05:27:49;;;;;;;;;;;0.30;82.80;;;;;;5021111;28;89162;-61
2021/12/09 05:30:14;;;;;;;;;;;0.30;82.90;;;;;;5020645;28;87263;-61
2021/12/09 05:32:40;;;;;;;;;;;0.20;82.90;;;;;;5020798;28;87172;-61
2021/12/09 05:35:06;;;;;;;;;;;0.30;83.00;;;;;;5020646;28;88099;-61
2021/12/09 05:37:32;;;;;;;;;;;0.30;83.00;;;;;;5023212;28;87142;-61
2021/12/09 05:39:59;;;;;;;;;;;0.20;83.00;;;;;;5020650;28;88628;-61
2021/12/09 05:42:24;;;;;;;;;;;0.30;83.00;;;;;;5019847;28;86381;-61
2021/12/09 05:44:50;;;;;;;;;;;0.30;83.00;;;;;;5018241;28;87174;-61
2021/12/09 05:47:16;;;;;;;;;;;0.30;83.00;;;;;;5016889;28;87244;-61
2021/12/09 05:49:43;;;;;;;;;;;0.20;83.10;;;;;;5015761;28;88077;-61
2021/12/09 05:52:09;;;;;;;;;;;0.20;83.10;;;;;;5019705;28;89552;-61
2021/12/09 05:54:35;;;;;;;;;;;0.20;83.10;;;;;;5018638;28;88156;-61
2021/12/09 05:57:01;;;;;;;;;;;0.20;83.00;;;;;;5020548;28;87135;-61
2021/12/09 05:59:26;;;;;;;;;;;0.20;83.10;;;;;;5020642;28;88816;-61
2021/12/09 06:01:52;;;;;;;;;;;0.20;83.10;;;;;;5019481;28;87163;-61
2021/12/09 06:04:18;;;;;;;;;;;0.20;83.10;;;;;;5020713;28;88617;-61
2021/12/09 06:06:44;;;;;;;;;;;0.20;83.00;;;;;;5019625;28;88298;-61
2021/12/09 06:09:11;;;;;;;;;;;0.20;83.10;;;;;;5019208;28;87373;-61
2021/12/09 06:11:37;;;;;;;;;;;0.20;83.60;;;;;;5017436;28;87921;-61
2021/12/09 06:14:03;;;;;;;;;;;0.20;83.10;;;;;;5017732;28;89628;-61
2021/12/09 06:16:29;;;;;;;;;;;0.20;83.10;;;;;;5019150;28;87167;-61
2021/12/09 06:18:54;;;;;;;;;;;0.20;83.20;;;;;;5017774;28;87174;-61
2021/12/09 06:21:22;;;;;;;;;;;0.20;83.10;;;;;;5022363;28;89706;-61
2021/12/09 06:23:48;;;;;;;;;;;0.20;83.10;;;;;;5019879;28;88677;-61
2021/12/09 06:26:13;;;;;;;;;;;0.20;83.10;;;;;;5016945;28;88669;-61
2021/12/09 06:28:39;;;;;;;;;;;0.20;83.20;;;;;;5019849;28;87165;-61
2021/12/09 06:31:05;;;;;;;;;;;0.20;83.10;;;;;;5018503;28;87298;-61
2021/12/09 06:33:32;;;;;;;;;;;0.20;83.20;;;;;;5017872;28;88295;-61
2021/12/09 06:35:57;;;;;;;;;;;0.20;83.20;;;;;;5019759;28;87152;-61
2021/12/09 06:38:23;;;;;;;;;;;0.20;83.20;;;;;;5016882;28;88606;-61
2021/12/09 06:40:49;;;;;;;;;;;0.20;83.20;;;;;;5018623;28;89508;-61
2021/12/09 06:43:16;;;;;;;;;;;0.20;83.30;;;;;;5020928;28;87152;-61
2021/12/09 06:45:41;;;;;;;;;;;0.20;83.20;;;;;;5016469;28;90981;-61
2021/12/09 06:48:07;;;;;;;;;;;0.20;83.20;;;;;;5019688;28;87418;-61
2021/12/09 06:50:32;;;;;;;;;;;0.20;83.00;;;;;;5017337;28;88175;-61
2021/12/09 06:52:58;;;;;;;;;;;0.20;83.10;;;;;;5018532;28;89798;-61
2021/12/09 06:55:23;;;;;;;;;;;0.20;83.10;;;;;;5019918;28;86414;-61
2021/12/09 06:57:49;;;;;;;;;;;0.20;83.00;;;;;;5019922;28;87819;-61
2021/12/09 07:00:18;;;;;;;;;;;0.20;83.00;;;;;;5016949;28;88881;-61
2021/12/09 07:02:44;;;;;;;;;;;0.20;83.10;;;;;;5018646;28;89578;-61
2021/12/09 07:05:11;;;;;;;;;;;0.20;83.10;;;;;;5022240;28;88428;-61
2021/12/09 07:07:37;;;;;;;;;;;0.20;83.10;;;;;;5022980;28;87164;-61
2021/12/09 07:10:04;;;;;;;;;;;0.20;83.10;;;;;;5021749;28;88964;-61
2021/12/09 07:12:29;;;;;;;;;;;0.20;83.10;;;;;;5020293;28;90284;-60
2021/12/09 07:14:55;;;;;;;;;;;0.20;83.10;;;;;;5022187;28;87227;-60
2021/12/09 07:17:20;;;;;;;;;;;0.20;83.10;;;;;;5021426;28;87426;-60
2021/12/09 07:19:46;;;;;;;;;;;0.20;83.20;;;;;;5023236;28;87379;-60
2021/12/09 07:22:12;;;;;;;;;;;0.20;83.10;;;;;;5020418;28;87176;-61
2021/12/09 07:24:37;;;;;;;;;;;0.20;83.10;;;;;;5022266;28;87339;-61
2021/12/09 07:27:03;;;;;;;;;;;0.20;83.10;;;;;;5022806;28;89321;-61
2021/12/09 07:29:28;;;;;;;;;;;0.20;83.30;;;;;;5021534;28;89309;-61
2021/12/09 07:31:54;;;;;;;;;;;0.20;83.60;;;;;;5022961;28;87734;-60
2021/12/09 07:34:21;;;;;;;;;;;0.20;83.10;;;;;;5022435;28;87248;-60
2021/12/09 07:36:47;;;;;;;;;;;0.20;83.00;;;;;;5021843;28;89355;-60
2021/12/09 07:39:12;;;;;;;;;;;0.30;83.20;;;;;;5019427;28;87483;-61
2021/12/09 07:41:38;;;;;;;;;;;0.30;83.20;;;;;;5022377;28;88796;-60
2021/12/09 07:44:05;;;;;;;;;;;0.30;83.10;;;;;;5021110;28;88597;-60
2021/12/09 07:46:31;;;;;;;;;;;0.30;83.10;;;;;;5022103;28;89695;-61
2021/12/09 07:48:57;;;;;;;;;;;0.30;83.10;;;;;;5021727;28;88021;-60
2021/12/09 07:51:22;;;;;;;;;;;0.30;83.20;;;;;;5020009;28;90530;-60
2021/12/09 07:53:48;;;;;;;;;;;0.30;83.20;;;;;;5021983;28;88571;-60
2021/12/09 07:56:13;;;;;;;;;;;0.30;83.10;;;;;;5018819;28;87226;-60
2021/12/09 07:58:39;;;;;;;;;;;0.30;83.20;;;;;;5018661;28;88683;-60
2021/12/09 08:01:04;;;;;;;;;;;0.30;83.30;;;;;;5019483;28;87139;-60
2021/12/09 08:03:30;;;;;;;;;;;0.30;83.20;;;;;;5018342;28;88607;-60
2021/12/09 08:05:56;;;;;;;;;;;0.30;83.30;;;;;;5019798;28;87977;-60
2021/12/09 08:08:21;;;;;;;;;;;0.30;83.10;;;;;;5025091;28;88134;-60
2021/12/09 08:10:47;;;;;;;;;;;0.30;83.10;;;;;;5017975;28;90033;-60
2021/12/09 08:13:13;;;;;;;;;;;0.30;83.10;;;;;;5020682;28;87186;-60
2021/12/09 08:15:45;;;;;;;;;;;0.30;82.90;;;;;;5018444;28;88226;-60
2021/12/09 08:18:25;;;;;;;;;;;0.40;82.90;;;;;;5017074;28;88456;-60
2021/12/09 08:20:52;;;;;;;;;;;0.40;82.80;;;;;;5017790;28;87162;-60
2021/12/09 08:23:18;;;;;;;;;;;0.40;83.00;;;;;;5018563;28;88427;-60
2021/12/09 08:25:45;;;;;;;;;;;0.40;83.00;;;;;;5017481;28;90298;-60
2021/12/09 08:28:12;;;;;;;;;;;0.40;83.00;;;;;;5021542;28;88595;-60
2021/12/09 08:30:38;;;;;;;;;;;0.40;82.90;;;;;;5023441;28;88312;-60
2021/12/09 08:33:05;;;;;;;;;;;0.40;83.00;;;;;;5020595;28;86438;-60
2021/12/09 08:35:31;;;;;;;;;;;0.40;83.10;;;;;;5019187;28;87704;-60
2021/12/09 08:37:58;;;;;;;;;;;0.40;83.00;;;;;;5018703;28;88009;-60
2021/12/09 08:40:24;;;;;;;;;;;0.40;83.00;;;;;;5017688;28;88054;-60
2021/12/09 08:42:50;;;;;;;;;;;0.40;83.20;;;;;;5017389;28;87931;-60
2021/12/09 08:45:16;;;;;;;;;;;0.40;83.20;;;;;;5018107;28;87575;-60
2021/12/09 08:47:42;;;;;;;;;;;0.40;83.00;;;;;;5019035;28;87105;-59
2021/12/09 08:50:09;;;;;;;;;;;0.40;83.20;;;;;;5020045;28;87434;-59
2021/12/09 08:52:35;;;;;;;;;;;0.40;83.10;;;;;;5021495;28;87496;-60
2021/12/09 08:55:00;;;;;;;;;;;0.40;83.20;;;;;;5016020;28;87919;-60
2021/12/09 08:57:27;;;;;;;;;;;0.40;83.10;;;;;;5018284;28;88795;-60
2021/12/09 08:59:52;;;;;;;;;;;0.50;83.40;;;;;;5017710;28;87273;-60
2021/12/09 09:02:18;;;;;;;;;;;0.50;83.10;;;;;;5020131;28;87374;-60
2021/12/09 09:04:45;;;;;;;;;;;0.50;83.30;;;;;;5016256;28;90579;-60
2021/12/09 09:07:10;;;;;;;;;;;0.50;83.20;;;;;;5018209;28;87156;-59
2021/12/09 09:09:38;;;;;;;;;;;0.50;83.10;;;;;;4976974;28;1199518;-56
2021/12/09 09:12:05;;;;;;;;;;;0.50;83.10;;;;;;5019294;28;89175;-59
2021/12/09 09:14:31;;;;;;;;;;;0.50;83.10;;;;;;5021892;28;87151;-59
2021/12/09 09:16:56;;;;;;;;;;;0.50;83.50;;;;;;5019581;28;88281;-60
2021/12/09 09:19:22;;;;;;;;;;;0.50;83.40;;;;;;5019584;28;88019;-59
2021/12/09 09:21:47;;;;;;;;;;;0.50;83.20;;;;;;5017425;28;87426;-59
2021/12/09 09:24:13;;;;;;;;;;;0.50;83.40;;;;;;5017988;28;89219;-59
2021/12/09 09:26:39;;;;;;;;;;;0.50;83.60;;;;;;5018200;28;87253;-59
2021/12/09 09:29:05;;;;;;;;;;;0.50;83.80;;;;;;5020663;28;89404;-59
2021/12/09 09:31:32;;;;;;;;;;;0.50;83.90;;;;;;5020030;28;88836;-59
2021/12/09 09:34:00;;;;;;;;;;;0.50;83.90;;;;;;5020008;28;87259;-59
2021/12/09 09:36:25;;;;;;;;;;;0.50;84.20;;;;;;5023249;28;89147;-59
2021/12/09 09:38:55;;;;;;;;;;;0.50;84.20;;;;;;5018796;28;87116;-59
2021/12/09 09:41:24;;;;;;;;;;;0.50;84.00;;;;;;5020592;28;89224;-59
2021/12/09 09:46:17;;;;;;;;;;;0.50;84.10;;;;;;5019660;28;87499;-59
2021/12/09 09:48:46;;;;;;;;;;;0.50;84.10;;;;;;5018223;28;88624;-59
2021/12/09 09:51:12;;;;;;;;;;;0.50;84.20;;;;;;5019158;28;88105;-59
2021/12/09 09:53:56;;;;;;;;;;;0.50;84.50;;;;;;5016700;28;88871;-59
2021/12/09 09:56:24;;;;;;;;;;;0.50;84.60;;;;;;5020542;28;89313;-60
2021/12/09 09:58:50;;;;;;;;;;;0.50;84.50;;;;;;5019756;28;88000;-60
2021/12/09 10:01:17;;;;;;;;;;;0.50;84.80;;;;;;5020064;28;87179;-59
2021/12/09 10:03:46;;;;;;;;;;;0.50;84.90;;;;;;5018757;28;88970;-59
2021/12/09 10:06:12;;;;;;;;;;;0.50;84.80;;;;;;5018860;28;87909;-59
2021/12/09 10:08:38;;;;;;;;;;;0.50;84.90;;;;;;5019284;28;88779;-59
2021/12/09 10:11:04;;;;;;;;;;;0.50;85.00;;;;;;5018849;28;88050;-59
2021/12/09 10:13:30;;;;;;;;;;;0.60;84.90;;;;;;5017401;28;88792;-59
2021/12/09 10:15:56;;;;;;;;;;;0.60;85.10;;;;;;5018930;28;88802;-59
2021/12/09 10:18:38;;;;;;;;;;;0.60;85.20;;;;;;5020797;28;89028;-60
2021/12/09 10:21:08;;;;;;;;;;;0.60;85.30;;;;;;5020540;28;89309;-60
2021/12/09 10:23:33;;;;;;;;;;;0.60;84.90;;;;;;5019315;28;88097;-60
2021/12/09 10:26:17;;;;;;;;;;;0.60;84.90;;;;;;5017417;28;88608;-60
2021/12/09 10:28:51;;;;;;;;;;;0.60;85.70;;;;;;5016559;28;88456;-60
2021/12/09 10:31:19;;;;;;;;;;;0.60;85.00;;;;;;5020272;28;89527;-60
2021/12/09 10:34:05;;;;;;;;;;;0.60;85.10;;;;;;5018325;28;87158;-59
2021/12/09 10:36:50;;;;;;;;;;;0.60;85.00;;;;;;5018407;28;88880;-60
2021/12/09 10:39:17;;;;;;;;;;;0.60;85.10;;;;;;5019231;28;87242;-60
2021/12/09 10:41:43;;;;;;;;;;;0.70;85.00;;;;;;5021236;28;87137;-60
2021/12/09 10:44:09;;;;;;;;;;;0.70;85.00;;;;;;5018448;28;89134;-60
2021/12/09 10:47:13;;;;;;;;;;;0.70;84.90;;;;;;5020727;28;87184;-60
2021/12/09 10:49:54;;;;;;;;;;;0.70;85.10;;;;;;5017378;28;88538;-60
2021/12/09 10:52:36;;;;;;;;;;;0.70;85.10;;;;;;5017283;28;87129;-60
2021/12/09 10:55:09;;;;;;;;;;;0.70;85.10;;;;;;5017300;28;87165;-60
2021/12/09 10:57:35;;;;;;;;;;;0.80;85.00;;;;;;5016662;28;88743;-60
2021/12/09 11:00:15;;;;;;;;;;;0.70;85.00;;;;;;5015973;28;88101;-60
2021/12/09 11:02:59;;;;;;;;;;;0.80;85.00;;;;;;5018572;28;86415;-60
2021/12/09 11:05:25;;;;;;;;;;;0.80;85.20;;;;;;5021783;28;88036;-60
2021/12/09 11:07:51;;;;;;;;;;;0.80;85.30;;;;;;5016000;28;88125;-60
2021/12/09 11:10:18;;;;;;;;;;;0.80;85.30;;;;;;5015811;28;88144;-60
2021/12/09 11:12:57;;;;;;;;;;;0.70;85.40;;;;;;5015732;28;89834;-60
2021/12/09 11:15:43;;;;;;;;;;;0.80;85.50;;;;;;5018130;28;87256;-60
2021/12/09 11:18:32;;;;;;;;;;;0.70;85.30;;;;;;5019559;28;87499;-60
2021/12/09 11:20:58;;;;;;;;;;;0.80;85.40;;;;;;5016065;28;88744;-59
2021/12/09 11:23:29;;;;;;;;;;;0.80;85.70;;;;;;5016501;28;87232;-60
2021/12/09 11:25:58;;;;;;;;;;;0.80;85.70;;;;;;5017290;28;87378;-60
2021/12/09 11:28:26;;;;;;;;;;;0.80;85.60;;;;;;5021855;28;88217;-60
2021/12/09 11:31:13;;;;;;;;;;;0.80;85.70;;;;;;5018984;28;87902;-60
2021/12/09 11:33:43;;;;;;;;;;;0.90;85.60;;;;;;5018002;28;89811;-60
2021/12/09 11:36:15;;;;;;;;;;;0.90;85.60;;;;;;5019307;28;88149;-60
2021/12/09 11:39:06;;;;;;;;;;;0.90;85.60;;;;;;5019137;28;89823;-60
2021/12/09 11:41:34;;;;;;;;;;;0.80;85.90;;;;;;5017201;28;89346;-60
2021/12/09 11:44:00;;;;;;;;;;;0.90;85.90;;;;;;5018175;28;87164;-60
2021/12/09 11:46:25;;;;;;;;;;;0.90;85.70;;;;;;5019108;28;87469;-60
2021/12/09 11:48:51;;;;;;;;;;;0.90;85.80;;;;;;5019521;28;88417;-60
2021/12/09 11:51:17;;;;;;;;;;;0.90;85.80;;;;;;5026264;28;87182;-60
2021/12/09 11:53:44;;;;;;;;;;;0.90;85.70;;;;;;5020553;28;88871;-60
2021/12/09 11:57:09;;;;;;;;;;;0.90;85.80;;;;;;5023126;28;87142;-60
2021/12/09 11:59:25;;;;;;;;;;;0.90;85.90;;;;;;5014187;28;87874;-60
2021/12/09 12:07:54;;;;;;;;;;;0.90;85.90;;;;;;5022323;28;87191;-60
2021/12/09 12:13:58;;;;;;;;;;;0.90;86.00;;;;;;5022660;28;87145;-60
2021/12/09 12:16:26;;;;;;;;;;;0.90;85.90;;;;;;4955981;28;89166;-60
2021/12/09 12:19:10;;;;;;;;;;;1.00;86.20;;;;;;5011815;28;87380;-60
2021/12/09 12:22:46;;;;;;;;;;;1.00;86.10;;;;;;5021859;28;88853;-60
2021/12/09 12:27:26;;;;;;;;;;;1.00;86.10;;;;;;5021200;28;87204;-60
2021/12/09 12:35:10;;;;;;;;;;;1.00;86.20;;;;;;5021371;28;87198;-60
2021/12/09 12:37:47;;;;;;;;;;;1.00;86.20;;;;;;5023516;28;87157;-60
2021/12/09 12:40:13;;;;;;;;;;;1.00;86.10;;;;;;5020657;28;87228;-60
2021/12/09 12:42:53;;;;;;;;;;;1.00;86.30;;;;;;5020058;28;88494;-60
2021/12/09 12:48:09;;;;;;;;;;;1.00;86.30;;;;;;5018634;28;87420;-59
2021/12/09 12:50:35;;;;;;;;;;;1.00;86.00;;;;;;5018285;28;88730;-59
2021/12/09 12:53:19;;;;;;;;;;;1.00;86.30;;;;;;5018592;28;87733;-60
2021/12/09 12:56:03;;;;;;;;;;;1.00;86.30;;;;;;5021032;28;89648;-60
2021/12/09 12:58:29;;;;;;;;;;;1.00;86.40;;;;;;5019196;28;89034;-59
2021/12/09 13:00:55;;;;;;;;;;;1.00;86.30;;;;;;5021479;28;88945;-60
2021/12/09 13:03:35;;;;;;;;;;;1.10;86.40;;;;;;5020799;28;87396;-60
2021/12/09 13:06:10;;;;;;;;;;;1.10;86.30;;;;;;5019824;28;87787;-60
2021/12/09 13:11:16;;;;;;;;;;;1.10;86.40;;;;;;5018273;28;87956;-60
2021/12/09 13:16:28;;;;;;;;;;;1.10;86.40;;;;;;5018782;28;87132;-60
2021/12/09 13:21:54;;;;;;;;;;;1.10;86.80;;;;;;4997439;28;88473;-59
2021/12/09 13:35:19;;;;;;;;;;;1.20;86.40;;;;;;5020119;28;87863;-60
2021/12/09 13:40:38;;;;;;;;;;;1.20;86.30;;;;;;5020789;28;87451;-59
2021/12/09 13:46:07;;;;;;;;;;;1.20;86.40;;;;;;5017639;28;87283;-60
2021/12/09 13:48:44;;;;;;;;;;;1.20;86.40;;;;;;5018479;28;88152;-60
2021/12/09 13:51:29;;;;;;;;;;;1.20;86.50;;;;;;5020547;28;87180;-60
2021/12/09 13:54:17;;;;;;;;;;;1.20;86.30;;;;;;5020523;28;88233;-60
2021/12/09 13:56:44;;;;;;;;;;;1.20;86.40;;;;;;5016674;28;89708;-60
2021/12/09 13:59:16;;;;;;;;;;;1.20;86.50;;;;;;5019870;28;88806;-60
2021/12/09 14:01:41;;;;;;;;;;;1.30;86.60;;;;;;5018893;28;88991;-60
2021/12/09 14:04:07;;;;;;;;;;;1.30;86.60;;;;;;5019687;28;87804;-60
2021/12/09 14:06:33;;;;;;;;;;;1.30;86.50;;;;;;5020147;28;86549;-60
2021/12/09 14:08:58;;;;;;;;;;;1.30;86.40;;;;;;5021928;28;87367;-60
2021/12/09 14:11:29;;;;;;;;;;;1.30;86.30;;;;;;5018609;28;87156;-60
2021/12/09 14:14:04;;;;;;;;;;;1.30;86.40;;;;;;5017274;28;88878;-60
2021/12/09 14:21:35;;;;;;;;;;;1.40;86.80;;;;;;5019983;28;87378;-61
2021/12/09 14:24:08;;;;;;;;;;;1.40;86.60;;;;;;5018345;28;88255;-60
2021/12/09 14:26:33;;;;;;;;;;;1.40;86.50;;;;;;5016082;28;87165;-61
2021/12/09 14:29:00;;;;;;;;;;;1.40;87.00;;;;;;5016682;28;88788;-61
2021/12/09 14:31:25;;;;;;;;;;;1.40;86.40;;;;;;5023078;28;88152;-61
2021/12/09 14:33:51;;;;;;;;;;;1.40;86.40;;;;;;5019580;28;87177;-63
2021/12/09 14:36:18;;;;;;;;;;;1.40;86.70;;;;;;5019972;28;87632;-62
2021/12/09 14:38:44;;;;;;;;;;;1.40;86.40;;;;;;5017977;28;88165;-62
2021/12/09 14:41:29;;;;;;;;;;;1.50;86.40;;;;;;5017035;28;88443;-62
2021/12/09 14:43:54;;;;;;;;;;;1.40;86.30;;;;;;5016720;28;89670;-62
2021/12/09 14:46:24;;;;;;;;;;;1.50;86.40;;;;;;5016428;28;87170;-62
2021/12/09 14:48:50;;;;;;;;;;;1.50;86.50;;;;;;5018182;28;88568;-62
2021/12/09 14:51:15;;;;;;;;;;;1.50;86.30;;;;;;5017013;28;88241;-62
2021/12/09 14:53:43;;;;;;;;;;;1.50;86.00;;;;;;5019443;28;87155;-62
2021/12/09 14:56:23;;;;;;;;;;;1.50;86.20;;;;;;5019283;28;87820;-62
2021/12/09 14:58:49;;;;;;;;;;;1.50;86.30;;;;;;5019267;28;87173;-62
2021/12/09 15:01:18;;;;;;;;;;;1.60;86.20;;;;;;5018441;28;88511;-63
2021/12/09 15:04:02;;;;;;;;;;;1.60;86.20;;;;;;5017424;28;90684;-62
2021/12/09 15:06:37;;;;;;;;;;;1.60;85.90;;;;;;5017604;28;88698;-62
2021/12/09 15:09:13;;;;;;;;;;;1.60;86.20;;;;;;5016320;28;88834;-62
2021/12/09 15:11:40;;;;;;;;;;;1.60;86.10;;;;;;5019008;28;89039;-62
2021/12/09 15:14:14;;;;;;;;;;;1.60;86.80;;;;;;5019139;28;87146;-65
2021/12/09 15:16:39;;;;;;;;;;;1.70;89.60;;;;;;5018064;28;87176;-65
2021/12/09 15:19:18;;;;;;;;;;;1.70;89.00;;;;;;5017013;28;88792;-56
2021/12/09 15:21:59;;;;;;;;;;;1.70;89.00;;;;;;5016940;28;87436;-59
2021/12/09 15:24:25;;;;;;;;;;;1.90;90.60;;;;;;5017437;28;89543;-59
2021/12/09 15:26:51;;;;;;;;;;;2.00;90.70;;;;;;5019023;28;87160;-56
2021/12/09 15:29:20;;;;;;;;;;;2.10;90.80;;;;;;5018046;28;89698;-58